Time;durP1;ratioP1;P1;durP2;ratioP2;P2;SDS_P1;SDS_P2;PMS_P1;PMS_P2;Temp;Humidity;BMP_temperature;BMP_pressure;BME280_temperature;BME280_humidity;BME280_pressure;Samples;Min_cycle;Max_cycle;Signal;HPM_P1;HPM_P2
2023/11/19 00:00:11;;;;;;;8.82;8.05;;;5.10;1.00;;;;;;5084181;28;20686;-73
2023/11/19 00:02:40;;;;;;;8.18;7.35;;;5.10;1.00;;;;;;5079148;28;20469;-73
2023/11/19 00:05:09;;;;;;;9.23;8.00;;;5.10;1.00;;;;;;5075413;27;21121;-74
2023/11/19 00:07:36;;;;;;;9.40;7.85;;;5.10;1.00;;;;;;5081291;28;20244;-75
2023/11/19 00:10:06;;;;;;;9.13;7.80;;;5.10;1.00;;;;;;5068589;28;20242;-73
2023/11/19 00:12:33;;;;;;;7.88;7.18;;;5.00;1.00;;;;;;5076342;28;20241;-72
2023/11/19 00:15:00;;;;;;;9.20;8.18;;;5.10;1.00;;;;;;5076004;28;20766;-71
2023/11/19 00:17:28;;;;;;;8.70;7.85;;;5.10;1.00;;;;;;5080682;28;20237;-74
2023/11/19 00:19:56;;;;;;;8.07;7.28;;;5.10;1.00;;;;;;5087337;28;20256;-74
2023/11/19 00:22:25;;;;;;;8.13;7.35;;;5.10;1.00;;;;;;5069361;28;20294;-74
2023/11/19 00:24:55;;;;;;;12.77;11.55;;;5.00;1.00;;;;;;5065986;28;20236;-76
2023/11/19 00:27:22;;;;;;;8.13;7.43;;;5.10;1.00;;;;;;5082492;28;20311;-73
2023/11/19 00:29:50;;;;;;;9.45;8.20;;;5.10;1.00;;;;;;5076737;28;20244;-73
2023/11/19 00:32:18;;;;;;;9.05;7.53;;;5.10;1.00;;;;;;5090896;28;20290;-73
2023/11/19 00:34:47;;;;;;;9.40;8.50;;;5.10;1.00;;;;;;5070556;28;20261;-73
2023/11/19 00:37:16;;;;;;;8.98;8.18;;;5.10;1.00;;;;;;5051310;28;20233;-73
2023/11/19 00:39:43;;;;;;;7.88;7.05;;;5.00;1.00;;;;;;5071830;28;20724;-74
2023/11/19 00:42:15;;;;;;;7.70;6.85;;;5.00;1.00;;;;;;5079741;28;20236;-73
2023/11/19 00:44:42;;;;;;;8.20;7.40;;;5.00;1.00;;;;;;5082364;27;20394;-74
2023/11/19 00:47:09;;;;;;;8.38;7.13;;;5.10;1.00;;;;;;5066526;28;20241;-72
2023/11/19 00:49:35;;;;;;;8.30;7.47;;;5.10;1.00;;;;;;5068943;28;20350;-71
2023/11/19 00:52:03;;;;;;;7.30;6.68;;;5.00;1.00;;;;;;5061163;28;20249;-73
2023/11/19 00:54:32;;;;;;;8.85;7.95;;;5.10;1.00;;;;;;5077404;28;20867;-72
2023/11/19 00:57:01;;;;;;;9.90;9.00;;;5.00;1.00;;;;;;5072441;28;20245;-75
2023/11/19 00:59:29;;;;;;;7.63;6.93;;;5.10;1.00;;;;;;5076760;28;20238;-71
2023/11/19 01:01:56;;;;;;;8.07;7.30;;;5.00;1.00;;;;;;5077414;28;20712;-71
2023/11/19 01:04:24;;;;;;;9.05;7.20;;;5.00;1.00;;;;;;5074212;28;20342;-72
2023/11/19 01:06:51;;;;;;;8.00;7.20;;;5.00;1.00;;;;;;5065652;28;20740;-75
2023/11/19 01:09:18;;;;;;;9.52;7.22;;;5.10;1.00;;;;;;5075392;28;20248;-76
2023/11/19 01:11:46;;;;;;;7.85;7.05;;;5.10;1.00;;;;;;5075935;27;20256;-70
2023/11/19 01:14:13;;;;;;;8.43;7.13;;;5.10;1.00;;;;;;5079134;28;20333;-71
2023/11/19 01:16:40;;;;;;;7.60;6.93;;;5.10;1.00;;;;;;5085671;28;20238;-72
2023/11/19 01:19:07;;;;;;;9.95;7.63;;;5.10;1.00;;;;;;5082625;28;20323;-72
2023/11/19 01:21:34;;;;;;;8.55;7.60;;;5.10;1.00;;;;;;5079903;28;20244;-72
2023/11/19 01:24:03;;;;;;;8.27;7.40;;;5.10;1.00;;;;;;5065862;28;20238;-72
2023/11/19 01:26:29;;;;;;;8.55;7.78;;;5.10;1.00;;;;;;5063245;28;20241;-72
2023/11/19 01:29:00;;;;;;;7.60;6.90;;;5.20;1.00;;;;;;5082374;28;20323;-73
2023/11/19 01:31:27;;;;;;;7.97;6.40;;;5.20;1.00;;;;;;5087198;27;20450;-72
2023/11/19 01:33:54;;;;;;;7.95;7.25;;;5.30;1.00;;;;;;5088994;27;20239;-73
2023/11/19 01:36:20;;;;;;;7.72;6.90;;;5.30;1.00;;;;;;5088719;28;20280;-71
2023/11/19 01:38:47;;;;;;;9.35;6.80;;;5.30;1.00;;;;;;5066567;28;20236;-71
2023/11/19 01:41:14;;;;;;;7.95;6.65;;;5.30;1.00;;;;;;5074597;28;20266;-71
2023/11/19 01:43:42;;;;;;;6.32;5.72;;;5.30;1.00;;;;;;5089188;27;20238;-72
2023/11/19 01:46:11;;;;;;;7.53;6.82;;;5.30;1.00;;;;;;5084050;28;20322;-74
2023/11/19 01:48:41;;;;;;;6.90;6.20;;;5.30;1.00;;;;;;5065733;28;20241;-76
2023/11/19 01:51:09;;;;;;;7.20;6.32;;;5.40;1.00;;;;;;5074550;28;20251;-74
2023/11/19 01:53:37;;;;;;;7.05;6.32;;;5.40;1.00;;;;;;5070325;28;20291;-74
2023/11/19 01:56:05;;;;;;;7.80;7.10;;;5.30;1.00;;;;;;5077589;28;20235;-74
2023/11/19 01:58:32;;;;;;;7.63;6.82;;;5.30;1.00;;;;;;5081047;28;20241;-75
2023/11/19 02:00:59;;;;;;;7.47;5.82;;;5.30;1.00;;;;;;5084057;28;20233;-74
2023/11/19 02:03:29;;;;;;;7.43;6.72;;;5.30;1.00;;;;;;5066843;28;20245;-74
2023/11/19 02:05:56;;;;;;;7.13;5.90;;;5.30;1.00;;;;;;5077699;28;20242;-74
2023/11/19 02:08:23;;;;;;;7.20;6.50;;;5.30;1.00;;;;;;5070739;28;21066;-75
2023/11/19 02:10:51;;;;;;;7.78;7.07;;;5.30;1.00;;;;;;5067775;28;20286;-74
2023/11/19 02:13:18;;;;;;;8.02;6.85;;;5.30;1.00;;;;;;5074137;28;21192;-75
2023/11/19 02:15:45;;;;;;;8.13;7.10;;;5.30;1.00;;;;;;5080094;28;20273;-74
2023/11/19 02:18:22;;;;;;;8.18;7.38;;;5.20;1.00;;;;;;5070509;28;20306;-75
2023/11/19 02:20:51;;;;;;;7.63;6.82;;;5.20;1.00;;;;;;5070964;28;20290;-75
2023/11/19 02:23:20;;;;;;;7.53;6.72;;;5.10;1.00;;;;;;5085642;28;21470;-73
2023/11/19 02:25:55;;;;;;;8.13;7.43;;;5.10;1.00;;;;;;5068226;28;20340;-74
2023/11/19 02:28:24;;;;;;;7.03;6.00;;;5.10;1.00;;;;;;5074333;27;20375;-74
2023/11/19 02:30:51;;;;;;;6.63;6.03;;;5.20;1.00;;;;;;5077290;28;20240;-75
2023/11/19 02:33:18;;;;;;;7.90;7.07;;;5.10;1.00;;;;;;5077659;28;20228;-75
2023/11/19 02:35:45;;;;;;;8.07;7.30;;;5.10;1.00;;;;;;5087635;28;20256;-74
2023/11/19 02:38:14;;;;;;;7.55;6.80;;;5.10;1.00;;;;;;5082700;28;20236;-73
2023/11/19 02:40:40;;;;;;;7.07;6.38;;;5.10;1.00;;;;;;5071006;28;20233;-74
2023/11/19 02:43:08;;;;;;;7.13;6.43;;;5.10;1.00;;;;;;5087454;28;20232;-75
2023/11/19 02:45:37;;;;;;;6.10;5.50;;;5.20;1.00;;;;;;5088972;28;21042;-74
2023/11/19 02:48:06;;;;;;;6.35;5.85;;;5.20;1.00;;;;;;5085071;28;21102;-74
2023/11/19 02:50:34;;;;;;;7.30;6.60;;;5.20;1.00;;;;;;5086591;28;20247;-73
2023/11/19 02:53:01;;;;;;;7.05;6.40;;;5.20;1.00;;;;;;5086413;27;20240;-75
2023/11/19 02:55:30;;;;;;;6.15;5.65;;;5.20;1.00;;;;;;5088628;28;20316;-74
2023/11/19 02:57:59;;;;;;;7.95;5.65;;;5.30;1.00;;;;;;5083332;28;20366;-74
2023/11/19 03:00:33;;;;;;;6.40;5.90;;;5.30;1.00;;;;;;5081853;28;20235;-74
2023/11/19 03:03:20;;;;;;;6.40;5.80;;;5.30;1.00;;;;;;5079191;28;20232;-74
2023/11/19 03:05:47;;;;;;;7.28;5.85;;;5.30;1.00;;;;;;5078514;28;20293;-73
2023/11/19 03:08:15;;;;;;;5.43;4.93;;;5.30;1.00;;;;;;5063531;28;20269;-74
2023/11/19 03:10:42;;;;;;;5.40;5.00;;;5.40;1.00;;;;;;5074149;28;20232;-74
2023/11/19 03:13:14;;;;;;;7.30;5.68;;;5.40;1.00;;;;;;5076546;28;20268;-74
2023/11/19 03:15:41;;;;;;;5.32;4.93;;;5.50;1.00;;;;;;5066680;28;20240;-75
2023/11/19 03:18:09;;;;;;;5.15;4.55;;;5.50;1.00;;;;;;5064073;28;20743;-75
2023/11/19 03:20:36;;;;;;;5.32;4.82;;;5.50;1.00;;;;;;5075411;28;20290;-75
2023/11/19 03:23:03;;;;;;;5.50;5.00;;;5.60;1.00;;;;;;5067793;28;20237;-75
2023/11/19 03:25:33;;;;;;;4.93;4.40;;;5.70;1.00;;;;;;5076782;28;20766;-76
2023/11/19 03:28:00;;;;;;;5.55;5.05;;;5.70;1.00;;;;;;5069010;28;20247;-75
2023/11/19 03:30:28;;;;;;;6.10;5.53;;;5.70;1.00;;;;;;5086959;28;20234;-74
2023/11/19 03:32:55;;;;;;;5.03;4.57;;;5.70;1.00;;;;;;5078529;28;20269;-75
2023/11/19 03:35:24;;;;;;;6.40;5.35;;;5.80;1.00;;;;;;5073292;28;20279;-75
2023/11/19 03:37:51;;;;;;;6.15;5.57;;;5.70;1.00;;;;;;5070567;28;20337;-75
2023/11/19 03:40:19;;;;;;;6.05;5.43;;;5.70;1.00;;;;;;5088236;28;20272;-74
2023/11/19 03:42:47;;;;;;;5.72;5.22;;;5.80;1.00;;;;;;5094783;27;20243;-75
2023/11/19 03:45:14;;;;;;;5.90;5.40;;;5.70;1.00;;;;;;5085734;27;20241;-75
2023/11/19 03:47:41;;;;;;;5.45;5.05;;;5.50;1.00;;;;;;5070432;28;20241;-75
2023/11/19 03:50:09;;;;;;;6.20;5.60;;;5.40;1.00;;;;;;5067600;28;20243;-75
2023/11/19 03:52:37;;;;;;;5.70;5.20;;;5.30;1.00;;;;;;5079498;28;20339;-77
2023/11/19 03:55:08;;;;;;;6.22;5.63;;;5.20;1.00;;;;;;5079023;28;20323;-75
2023/11/19 03:57:35;;;;;;;6.75;5.55;;;5.10;1.00;;;;;;5076148;28;21087;-75
2023/11/19 04:00:08;;;;;;;7.55;5.70;;;5.00;1.00;;;;;;5069054;28;20245;-75
2023/11/19 04:02:35;;;;;;;7.78;6.57;;;4.90;1.00;;;;;;5084285;28;20224;-73
2023/11/19 04:05:03;;;;;;;8.70;7.90;;;4.90;1.00;;;;;;5089468;28;20243;-73
2023/11/19 04:07:31;;;;;;;10.13;8.02;;;4.80;1.00;;;;;;5086272;28;20247;-75
2023/11/19 04:10:00;;;;;;;10.07;7.65;;;4.80;1.00;;;;;;5068035;28;20295;-74
2023/11/19 04:12:27;;;;;;;8.32;7.53;;;4.70;1.00;;;;;;5076061;28;20366;-76
2023/11/19 04:14:54;;;;;;;9.40;7.63;;;4.70;1.00;;;;;;5090565;28;20762;-75
2023/11/19 04:17:21;;;;;;;8.77;6.93;;;4.70;1.00;;;;;;5078597;28;21034;-77
2023/11/19 04:19:48;;;;;;;7.68;6.88;;;4.70;1.00;;;;;;5089435;28;20270;-75
2023/11/19 04:22:15;;;;;;;8.98;8.05;;;4.60;1.00;;;;;;5082944;28;20283;-76
2023/11/19 04:24:43;;;;;;;8.68;7.78;;;4.70;1.00;;;;;;5078500;28;20964;-74
2023/11/19 04:27:12;;;;;;;8.27;7.45;;;4.70;1.00;;;;;;5085713;27;20342;-75
2023/11/19 04:29:39;;;;;;;8.23;7.00;;;4.70;1.00;;;;;;5071234;28;20236;-75
2023/11/19 04:32:07;;;;;;;8.43;7.28;;;4.70;1.00;;;;;;5076834;27;20267;-73
2023/11/19 04:34:34;;;;;;;8.82;7.95;;;4.70;1.00;;;;;;5068350;28;20239;-74
2023/11/19 04:37:05;;;;;;;8.30;7.47;;;4.70;1.00;;;;;;5067537;28;20339;-74
2023/11/19 04:39:32;;;;;;;8.77;7.97;;;4.70;1.00;;;;;;5076086;28;20263;-75
2023/11/19 04:41:59;;;;;;;8.15;7.30;;;4.60;1.00;;;;;;5084531;28;20240;-74
2023/11/19 04:44:29;;;;;;;8.85;7.93;;;4.60;1.00;;;;;;5082079;28;20237;-75
2023/11/19 04:46:56;;;;;;;8.35;7.50;;;4.70;1.00;;;;;;5077959;28;20319;-79
2023/11/19 04:49:23;;;;;;;8.10;7.30;;;4.80;1.00;;;;;;5074236;28;20233;-76
2023/11/19 04:51:50;;;;;;;7.70;6.93;;;4.70;1.00;;;;;;5069790;28;20279;-75
2023/11/19 04:54:18;;;;;;;8.20;7.40;;;4.80;1.00;;;;;;5079307;28;20784;-75
2023/11/19 04:56:47;;;;;;;8.95;7.47;;;4.80;1.00;;;;;;5084959;28;20295;-74
2023/11/19 04:59:14;;;;;;;8.65;7.50;;;4.80;1.00;;;;;;5091101;28;20231;-74
2023/11/19 05:01:42;;;;;;;9.18;7.82;;;4.80;1.00;;;;;;5082492;28;21290;-75
2023/11/19 05:04:09;;;;;;;9.65;8.68;;;4.80;1.00;;;;;;5073391;28;20249;-74
2023/11/19 05:06:37;;;;;;;9.13;8.20;;;4.80;1.00;;;;;;5089051;28;21022;-75
2023/11/19 05:09:07;;;;;;;10.50;8.70;;;4.70;1.00;;;;;;5080432;28;20293;-75
2023/11/19 05:11:34;;;;;;;10.90;8.27;;;4.70;1.00;;;;;;5075737;28;20338;-74
2023/11/19 05:14:01;;;;;;;11.55;8.80;;;4.70;1.00;;;;;;5071237;28;20323;-74
2023/11/19 05:16:28;;;;;;;9.15;8.25;;;4.70;1.00;;;;;;5090441;28;20240;-79
2023/11/19 05:18:56;;;;;;;8.50;7.68;;;4.70;1.00;;;;;;5088872;27;20322;-76
2023/11/19 05:21:23;;;;;;;9.65;8.57;;;4.70;1.00;;;;;;5088175;28;20306;-76
2023/11/19 05:23:50;;;;;;;9.57;8.57;;;4.70;1.00;;;;;;5087238;28;20240;-75
2023/11/19 05:26:21;;;;;;;10.20;9.10;;;4.60;1.00;;;;;;5091030;28;20319;-77
2023/11/19 05:28:50;;;;;;;9.23;8.20;;;4.60;1.00;;;;;;5077957;28;20260;-76
2023/11/19 05:31:19;;;;;;;10.90;9.80;;;4.60;1.00;;;;;;5084965;28;20306;-78
2023/11/19 05:33:45;;;;;;;10.13;9.07;;;4.70;1.00;;;;;;5088967;28;20230;-77
2023/11/19 05:36:14;;;;;;;8.95;7.95;;;4.60;1.00;;;;;;5091653;28;20313;-77
2023/11/19 05:38:42;;;;;;;11.80;9.70;;;4.70;1.00;;;;;;5072670;28;20321;-77
2023/11/19 05:41:09;;;;;;;11.13;9.55;;;4.60;1.00;;;;;;5071108;28;21085;-79
2023/11/19 05:43:37;;;;;;;9.50;8.55;;;4.60;1.00;;;;;;5070380;28;20243;-77
2023/11/19 05:46:05;;;;;;;9.32;8.20;;;4.70;1.00;;;;;;5078591;28;20349;-77
2023/11/19 05:48:31;;;;;;;11.90;9.05;;;4.70;1.00;;;;;;5080911;28;20320;-77
2023/11/19 05:50:58;;;;;;;11.25;8.75;;;4.70;1.00;;;;;;5087010;27;20267;-77
2023/11/19 05:53:27;;;;;;;11.70;9.82;;;4.70;1.00;;;;;;5068545;28;20271;-74
2023/11/19 05:55:55;;;;;;;11.40;8.90;;;4.70;1.00;;;;;;5067590;28;20269;-75
2023/11/19 05:58:28;;;;;;;11.43;9.57;;;4.70;1.00;;;;;;5064753;28;21881;-79
2023/11/19 06:00:55;;;;;;;10.73;9.18;;;4.80;1.00;;;;;;5069304;28;20237;-75
2023/11/19 06:03:22;;;;;;;9.80;8.80;;;4.80;1.00;;;;;;5071633;28;20272;-77
2023/11/19 06:05:49;;;;;;;9.57;8.63;;;4.80;1.00;;;;;;5068468;28;20322;-77
2023/11/19 06:08:16;;;;;;;9.57;8.32;;;4.80;1.00;;;;;;5082980;28;20881;-76
2023/11/19 06:10:46;;;;;;;8.95;8.05;;;4.80;1.00;;;;;;5086568;28;20261;-76
2023/11/19 06:13:14;;;;;;;12.52;10.15;;;4.90;1.00;;;;;;5077021;28;20328;-76
2023/11/19 06:15:41;;;;;;;9.50;8.50;;;4.90;1.00;;;;;;5063805;28;20357;-76
2023/11/19 06:18:09;;;;;;;10.57;8.48;;;4.80;1.00;;;;;;5080353;27;20235;-76
2023/11/19 06:20:37;;;;;;;8.93;7.50;;;4.90;1.00;;;;;;5079741;28;20243;-76
2023/11/19 06:23:04;;;;;;;9.90;8.07;;;4.90;1.00;;;;;;5075593;28;20232;-77
2023/11/19 06:25:30;;;;;;;9.18;8.30;;;4.90;1.00;;;;;;5073726;28;20241;-72
2023/11/19 06:27:59;;;;;;;7.90;7.07;;;4.90;1.00;;;;;;5068436;28;20331;-76
2023/11/19 06:30:28;;;;;;;8.35;7.45;;;5.00;1.00;;;;;;5068632;28;20339;-74
2023/11/19 06:32:57;;;;;;;8.63;7.63;;;5.00;1.00;;;;;;5073086;28;20244;-77
2023/11/19 06:35:24;;;;;;;7.30;6.60;;;5.00;1.00;;;;;;5065487;27;21065;-73
2023/11/19 06:37:51;;;;;;;7.53;6.82;;;5.00;1.00;;;;;;5063944;28;20291;-73
2023/11/19 06:40:18;;;;;;;9.35;7.40;;;5.00;1.00;;;;;;5071097;28;20322;-71
2023/11/19 06:42:45;;;;;;;8.52;7.72;;;5.00;1.00;;;;;;5075792;28;20244;-73
2023/11/19 06:45:15;;;;;;;8.60;7.65;;;5.00;1.00;;;;;;5067528;28;20233;-75
2023/11/19 06:47:42;;;;;;;9.27;7.47;;;5.10;1.00;;;;;;5080210;28;20257;-76
2023/11/19 06:50:09;;;;;;;11.77;6.88;;;5.10;1.00;;;;;;5062469;28;20241;-74
2023/11/19 06:52:37;;;;;;;9.25;7.38;;;5.10;1.00;;;;;;5069318;28;20671;-73
2023/11/19 06:55:06;;;;;;;9.55;7.50;;;5.10;1.00;;;;;;5063848;28;20247;-72
2023/11/19 06:57:33;;;;;;;8.05;7.22;;;5.00;1.00;;;;;;5063145;28;20338;-74
2023/11/19 07:00:00;;;;;;;10.35;8.07;;;5.10;1.00;;;;;;5067102;28;20554;-72
2023/11/19 07:02:28;;;;;;;10.73;7.70;;;5.10;1.00;;;;;;5065281;27;20237;-73
2023/11/19 07:04:56;;;;;;;9.50;7.55;;;5.10;1.00;;;;;;5065482;28;20324;-73
2023/11/19 07:07:26;;;;;;;7.72;6.97;;;5.20;1.00;;;;;;5075704;28;20237;-72
2023/11/19 07:09:53;;;;;;;8.80;6.63;;;5.40;1.00;;;;;;5065375;28;20242;-72
2023/11/19 07:12:20;;;;;;;6.65;6.03;;;5.50;1.00;;;;;;5071120;28;21020;-73
2023/11/19 07:14:47;;;;;;;9.00;7.15;;;5.50;1.00;;;;;;5086677;28;20911;-73
2023/11/19 07:17:15;;;;;;;7.60;6.75;;;5.50;1.00;;;;;;5055296;28;20238;-73
2023/11/19 07:19:43;;;;;;;8.55;7.75;;;5.40;1.00;;;;;;5069094;28;20232;-76
2023/11/19 07:22:11;;;;;;;8.43;7.50;;;5.40;1.00;;;;;;5077747;28;21056;-73
2023/11/19 07:24:40;;;;;;;8.77;7.88;;;5.40;1.00;;;;;;5068527;28;20988;-76
2023/11/19 07:27:08;;;;;;;8.43;7.65;;;5.40;1.00;;;;;;5065242;28;20335;-74
2023/11/19 07:29:35;;;;;;;8.10;7.30;;;5.50;1.00;;;;;;5066888;28;20236;-72
2023/11/19 07:32:03;;;;;;;8.77;7.55;;;5.50;1.00;;;;;;5079996;28;20327;-73
2023/11/19 07:34:30;;;;;;;7.97;7.18;;;5.60;1.00;;;;;;5065235;28;20242;-74
2023/11/19 07:37:02;;;;;;;6.40;5.80;;;5.60;1.00;;;;;;5079929;28;20246;-74
2023/11/19 07:39:29;;;;;;;6.50;5.80;;;5.60;1.00;;;;;;5084520;28;20233;-73
2023/11/19 07:41:57;;;;;;;7.30;6.60;;;5.60;1.00;;;;;;5078440;28;20710;-72
2023/11/19 07:44:24;;;;;;;7.72;7.03;;;5.50;1.00;;;;;;5079559;28;20965;-73
2023/11/19 07:46:51;;;;;;;6.95;6.25;;;5.50;1.00;;;;;;5068320;28;20237;-73
2023/11/19 07:49:18;;;;;;;8.32;6.75;;;5.60;1.00;;;;;;5069586;28;20713;-73
2023/11/19 07:51:45;;;;;;;8.40;7.50;;;5.60;1.00;;;;;;5067151;28;20261;-73
2023/11/19 07:54:14;;;;;;;8.98;6.85;;;5.60;1.00;;;;;;5078058;28;20810;-72
2023/11/19 07:56:41;;;;;;;9.25;7.20;;;5.60;1.00;;;;;;5090485;28;21041;-73
2023/11/19 07:59:08;;;;;;;7.70;6.90;;;5.70;1.00;;;;;;5076379;28;20244;-73
2023/11/19 08:01:35;;;;;;;8.30;7.45;;;5.80;1.00;;;;;;5068713;28;20260;-72
2023/11/19 08:04:02;;;;;;;8.45;7.60;;;5.80;1.00;;;;;;5068186;28;20667;-73
2023/11/19 08:06:29;;;;;;;6.10;5.50;;;5.80;1.00;;;;;;5067848;28;20725;-72
2023/11/19 08:08:58;;;;;;;6.90;6.30;;;5.90;1.00;;;;;;5084390;28;20241;-72
2023/11/19 08:11:26;;;;;;;7.30;6.60;;;5.90;1.00;;;;;;5069577;28;20228;-73
2023/11/19 08:13:53;;;;;;;8.65;7.85;;;5.80;1.00;;;;;;5078818;28;20262;-74
2023/11/19 08:16:20;;;;;;;7.97;7.28;;;5.80;1.00;;;;;;5079545;28;20270;-71
2023/11/19 08:18:47;;;;;;;8.60;7.70;;;5.90;1.00;;;;;;5062204;28;20679;-72
2023/11/19 08:21:14;;;;;;;8.18;7.38;;;6.00;1.00;;;;;;5064870;28;20233;-72
2023/11/19 08:23:41;;;;;;;6.70;6.05;;;6.00;1.00;;;;;;5067400;28;20290;-73
2023/11/19 08:26:08;;;;;;;7.35;6.63;;;6.10;1.00;;;;;;5079028;28;20261;-72
2023/11/19 08:28:36;;;;;;;10.50;6.75;;;6.20;1.00;;;;;;5089250;27;20326;-73
2023/11/19 08:31:04;;;;;;;7.47;6.77;;;6.20;1.00;;;;;;5066522;28;20238;-73
2023/11/19 08:33:31;;;;;;;7.63;6.93;;;6.30;1.00;;;;;;5065830;28;20473;-74
2023/11/19 08:35:58;;;;;;;8.57;6.60;;;6.30;1.00;;;;;;5062563;28;20250;-73
2023/11/19 08:38:25;;;;;;;7.50;6.75;;;6.30;1.00;;;;;;5076786;28;20266;-75
2023/11/19 08:40:52;;;;;;;8.80;7.93;;;6.30;1.00;;;;;;5079234;28;20732;-73
2023/11/19 08:43:19;;;;;;;10.38;8.45;;;6.30;1.00;;;;;;5064729;28;20242;-74
2023/11/19 08:45:47;;;;;;;8.32;7.15;;;6.50;1.00;;;;;;5085953;28;21137;-76
2023/11/19 08:48:14;;;;;;;7.40;6.70;;;6.50;1.00;;;;;;5080781;28;20233;-73
2023/11/19 08:50:42;;;;;;;8.25;7.15;;;6.50;1.00;;;;;;5080102;27;21099;-73
2023/11/19 08:53:08;;;;;;;7.13;6.43;;;6.60;1.00;;;;;;5071534;28;21855;-73
2023/11/19 08:55:35;;;;;;;7.10;6.43;;;6.70;1.00;;;;;;5065361;28;20274;-74
2023/11/19 08:58:03;;;;;;;7.72;6.93;;;6.70;1.00;;;;;;5082113;28;21155;-71
2023/11/19 09:00:32;;;;;;;8.37;7.53;;;6.80;1.00;;;;;;5078146;28;20326;-73
2023/11/19 09:03:00;;;;;;;7.90;7.10;;;6.90;1.00;;;;;;5073787;28;20477;-72
2023/11/19 09:05:27;;;;;;;8.73;7.83;;;6.90;1.00;;;;;;5064100;28;20551;-76
2023/11/19 09:07:55;;;;;;;9.48;8.60;;;7.00;1.00;;;;;;5082536;28;20489;-71
2023/11/19 09:10:22;;;;;;;8.97;8.17;;;7.10;1.00;;;;;;5067244;28;20274;-71
2023/11/19 09:12:49;;;;;;;9.00;8.20;;;7.10;1.00;;;;;;5063641;28;20506;-74
2023/11/19 09:15:16;;;;;;;7.95;7.15;;;7.20;1.00;;;;;;5077685;27;20448;-72
2023/11/19 09:17:43;;;;;;;7.38;6.70;;;7.20;1.00;;;;;;5070438;28;20268;-73
2023/11/19 09:20:15;;;;;;;8.83;7.00;;;7.30;1.00;;;;;;5068366;28;20286;-72
2023/11/19 09:22:42;;;;;;;7.40;6.78;;;7.30;1.00;;;;;;5085910;28;20553;-72
2023/11/19 09:25:09;;;;;;;9.07;8.07;;;7.40;1.00;;;;;;5063223;28;20259;-73
2023/11/19 09:27:36;;;;;;;8.37;7.67;;;7.50;1.00;;;;;;5082970;28;20342;-72
2023/11/19 09:30:03;;;;;;;8.60;7.80;;;7.60;1.00;;;;;;5068473;28;20487;-72
2023/11/19 09:32:30;;;;;;;8.27;7.57;;;7.70;1.00;;;;;;5072363;28;20459;-73
2023/11/19 09:34:57;;;;;;;9.43;8.60;;;7.90;1.00;;;;;;5074216;28;20533;-73
2023/11/19 09:37:25;;;;;;;9.57;8.00;;;7.90;1.00;;;;;;5069815;28;20466;-72
2023/11/19 09:39:53;;;;;;;8.70;7.90;;;8.00;1.00;;;;;;5062444;28;20530;-72
2023/11/19 09:42:23;;;;;;;8.70;7.77;;;8.20;1.00;;;;;;5082374;28;20466;-72
2023/11/19 09:44:50;;;;;;;8.53;7.83;;;8.30;1.00;;;;;;5070743;28;20601;-73
2023/11/19 09:47:20;;;;;;;8.63;7.83;;;8.70;1.00;;;;;;5060755;28;20474;-70
2023/11/19 09:49:48;;;;;;;7.43;6.83;;;9.00;1.00;;;;;;5068108;28;21032;-73
2023/11/19 09:52:16;;;;;;;7.17;6.47;;;8.90;1.00;;;;;;5085419;28;20564;-71
2023/11/19 09:54:44;;;;;;;7.07;6.47;;;8.90;1.00;;;;;;5077551;27;20541;-74
2023/11/19 09:57:15;;;;;;;7.10;6.40;;;9.20;1.00;;;;;;5047532;28;20459;-75
2023/11/19 09:59:43;;;;;;;5.83;5.33;;;9.70;1.00;;;;;;5063568;28;20484;-76
2023/11/19 10:02:11;;;;;;;5.80;5.30;;;9.90;1.00;;;;;;5063751;28;21239;-77
2023/11/19 10:04:38;;;;;;;6.53;5.93;;;10.20;1.00;;;;;;5060015;28;20980;-76
2023/11/19 10:07:06;;;;;;;7.63;5.40;;;10.50;1.00;;;;;;5073858;28;21321;-77
2023/11/19 10:09:34;;;;;;;6.30;5.20;;;10.50;1.00;;;;;;5064789;28;20476;-77
2023/11/19 10:12:02;;;;;;;5.73;4.60;;;10.50;1.00;;;;;;5062027;28;20591;-78
2023/11/19 10:14:33;;;;;;;5.13;4.23;;;10.40;1.00;;;;;;5062119;28;20460;-79
2023/11/19 10:17:03;;;;;;;5.67;5.17;;;10.30;1.00;;;;;;5063110;28;20467;-76
2023/11/19 10:19:32;;;;;;;6.50;4.27;;;10.20;1.00;;;;;;5091372;28;20525;-78
2023/11/19 10:22:06;;;;;;;9.00;4.17;;;10.10;1.00;;;;;;5068542;28;20555;-78
2023/11/19 10:24:34;;;;;;;5.13;3.50;;;10.10;1.00;;;;;;5069624;27;20457;-79
2023/11/19 10:27:03;;;;;;;5.83;4.90;;;10.40;1.00;;;;;;5097793;27;22099;-76
2023/11/19 10:29:31;;;;;;;4.10;3.70;;;10.70;1.00;;;;;;5087139;28;20568;-77
2023/11/19 10:31:59;;;;;;;4.57;4.17;;;10.70;1.00;;;;;;5084196;28;20471;-78
2023/11/19 10:34:26;;;;;;;5.90;3.80;;;10.70;1.00;;;;;;5069634;28;20451;-78
2023/11/19 10:36:54;;;;;;;7.87;4.30;;;10.50;1.00;;;;;;5075777;28;20555;-78
2023/11/19 10:39:23;;;;;;;6.23;4.60;;;10.40;1.00;;;;;;5073506;28;20467;-78
2023/11/19 10:41:50;;;;;;;6.20;4.67;;;10.60;1.00;;;;;;5069632;28;20464;-77
2023/11/19 10:47:13;;;;;;;6.10;4.67;;;10.80;1.00;;;;;;5061713;27;1328102;-80
2023/11/19 10:49:40;;;;;;;6.73;4.10;;;11.80;1.00;;;;;;5071975;28;20718;-78
2023/11/19 10:52:10;;;;;;;5.03;4.20;;;12.20;1.00;;;;;;5087474;28;20447;-78
2023/11/19 10:54:41;;;;;;;8.63;4.20;;;12.00;1.00;;;;;;5088186;28;20546;-74
2023/11/19 10:57:10;;;;;;;7.90;5.23;;;11.80;1.00;;;;;;5084538;28;20442;-78
2023/11/19 10:59:39;;;;;;;4.90;3.57;;;11.70;1.00;;;;;;5087818;28;20497;-80
2023/11/19 11:02:13;;;;;;;5.07;4.10;;;11.70;1.00;;;;;;5086042;28;20952;-77
2023/11/19 11:04:45;;;;;;;6.30;4.30;;;11.70;1.00;;;;;;5088918;27;21332;-80
2023/11/19 11:07:15;;;;;;;4.27;3.50;;;11.80;1.00;;;;;;5083952;28;20459;-72
2023/11/19 11:09:46;;;;;;;5.30;3.70;;;11.80;1.00;;;;;;5077186;28;20501;-71
2023/11/19 11:12:16;;;;;;;7.53;4.37;;;11.90;1.00;;;;;;5071824;28;20463;-74
2023/11/19 11:14:45;;;;;;;8.70;4.60;;;11.80;1.00;;;;;;5073660;28;20509;-72
2023/11/19 11:17:17;;;;;;;5.20;3.83;;;11.70;1.00;;;;;;5077349;28;20456;-73
2023/11/19 11:19:44;;;;;;;8.43;4.10;;;11.70;1.00;;;;;;5061824;28;20873;-73
2023/11/19 11:22:12;;;;;;;6.67;3.90;;;12.20;1.00;;;;;;5075483;28;20464;-74
2023/11/19 11:25:09;;;;;;;5.77;4.00;;;12.60;1.00;;;;;;5072814;27;20591;-71
2023/11/19 11:28:07;;;;;;;8.60;3.63;;;12.70;1.00;;;;;;5064637;28;20472;-74
2023/11/19 11:30:47;;;;;;;7.87;3.80;;;12.90;1.00;;;;;;5084219;28;20457;-71
2023/11/19 11:33:31;;;;;;;6.27;3.47;;;13.20;1.00;;;;;;5077576;28;20471;-70
2023/11/19 11:36:12;;;;;;;9.23;4.13;;;13.10;1.00;;;;;;5086243;27;20495;-71
2023/11/19 11:38:43;;;;;;;8.13;3.87;;;12.80;1.00;;;;;;5074258;28;20530;-71
2023/11/19 11:41:24;;;;;;;10.07;4.07;;;12.60;1.00;;;;;;5074156;28;20505;-71
2023/11/19 11:43:51;;;;;;;7.23;3.83;;;12.70;1.00;;;;;;5063981;28;20470;-72
2023/11/19 11:46:56;;;;;;;7.83;3.77;;;13.50;1.00;;;;;;5064087;28;20910;-70
2023/11/19 11:49:34;;;;;;;11.87;4.30;;;14.20;1.00;;;;;;5068349;28;20464;-70
2023/11/19 11:52:03;;;;;;;8.00;4.00;;;14.60;1.00;;;;;;5073087;28;20958;-72
2023/11/19 11:54:31;;;;;;;5.67;4.00;;;15.00;1.00;;;;;;5080710;28;20934;-70
2023/11/19 11:57:10;;;;;;;7.30;3.93;;;15.30;1.00;;;;;;5057542;28;20448;-73
2023/11/19 11:59:50;;;;;;;8.97;3.67;;;16.00;1.00;;;;;;5062874;28;20507;-72
2023/11/19 12:02:20;;;;;;;8.20;4.00;;;16.40;1.00;;;;;;5050209;28;20455;-70
2023/11/19 12:04:53;;;;;;;12.40;5.47;;;16.20;1.00;;;;;;5057872;28;20943;-71
2023/11/19 12:07:22;;;;;;;12.17;4.47;;;15.60;1.00;;;;;;5061366;28;20546;-72
2023/11/19 12:09:55;;;;;;;8.63;4.10;;;15.00;1.00;;;;;;5046007;28;20479;-72
2023/11/19 12:12:28;;;;;;;7.33;4.30;;;14.40;1.00;;;;;;5056209;28;20498;-72
2023/11/19 12:15:02;;;;;;;10.47;5.53;;;13.90;1.00;;;;;;5054513;28;20467;-72
2023/11/19 12:17:44;;;;;;;10.90;4.53;;;13.70;1.00;;;;;;5065038;28;20614;-76
2023/11/19 12:20:13;;;;;;;8.10;5.17;;;13.40;1.00;;;;;;5058415;28;20468;-76
2023/11/19 12:22:41;;;;;;;12.93;4.67;;;13.30;1.00;;;;;;5066075;28;20883;-76
2023/11/19 12:25:11;;;;;;;8.77;4.57;;;13.10;1.00;;;;;;5067004;28;20467;-75
2023/11/19 12:27:42;;;;;;;14.17;5.33;;;13.10;1.00;;;;;;5056083;28;20603;-75
2023/11/19 12:30:10;;;;;;;9.90;4.60;;;13.10;1.00;;;;;;5058282;28;21343;-75
2023/11/19 12:32:41;;;;;;;13.43;5.43;;;13.10;1.00;;;;;;5055947;28;20465;-75
2023/11/19 12:35:11;;;;;;;15.00;5.43;;;13.10;1.00;;;;;;5062060;28;20450;-75
2023/11/19 12:37:54;;;;;;;11.07;3.70;;;13.10;1.00;;;;;;5068858;28;20501;-76
2023/11/19 12:40:23;;;;;;;13.27;5.40;;;13.00;1.00;;;;;;5060682;28;21106;-75
2023/11/19 12:42:51;;;;;;;12.90;6.57;;;12.80;1.00;;;;;;5067879;28;20832;-76
2023/11/19 12:45:20;;;;;;;8.17;5.00;;;12.70;1.00;;;;;;5070923;28;20469;-75
2023/11/19 12:47:49;;;;;;;11.10;4.83;;;12.60;1.00;;;;;;5066404;28;20547;-76
2023/11/19 12:50:17;;;;;;;9.10;5.87;;;12.60;1.00;;;;;;5059290;28;20474;-75
2023/11/19 12:52:45;;;;;;;6.83;3.93;;;12.50;1.00;;;;;;5064604;28;20511;-75
2023/11/19 12:55:29;;;;;;;14.43;5.40;;;12.40;1.00;;;;;;5070893;28;20548;-76
2023/11/19 12:57:56;;;;;;;12.10;5.70;;;12.20;1.00;;;;;;5061759;28;20457;-75
2023/11/19 13:00:25;;;;;;;9.17;5.53;;;12.10;1.00;;;;;;5082413;28;20467;-75
2023/11/19 13:02:53;;;;;;;10.13;4.80;;;12.20;1.00;;;;;;5068036;28;20807;-75
2023/11/19 13:05:30;;;;;;;10.20;6.00;;;12.30;1.00;;;;;;5071532;28;20521;-78
2023/11/19 13:08:02;;;;;;;12.50;5.53;;;12.30;1.00;;;;;;5071009;28;20464;-75
2023/11/19 13:10:31;;;;;;;19.47;6.30;;;12.10;1.00;;;;;;5070486;28;20481;-75
2023/11/19 13:13:06;;;;;;;15.53;5.10;;;12.10;1.00;;;;;;5070008;28;20448;-77